Airfield :
LOGIN :

Register | Disclaimer

   EN    FR    IT 

 










Legend :    VFR   Marginal VFR   IFR   Intensive IFR   Very Intensive IFR
Visi :
Ceiling :
>= 8 km
>= 3000ft
5 to 8 km
1000 to 3000 ft
1500m to 5 km
500 to 1000 ft
800 to 1500m
200 to 500 ft
< 800m
< 200 ft
Symbols :   Thunderstorms  Fog  Heavy snow  Heavy precipitations  Wind > 20 kt
SIGMETs :     Misc.  Thunderstorms  Icing  Turbulence  Mountain Waves  Volcanic Ashes






- Airport Elevation : 505 ft
- IATA code : SXB


LFST - Strasbourg

CURRENT METAR :
  • 250730Z AUTO 20006KT 9999 FEW038 SCT048 BKN056 01/00 Q1001 TEMPO 4000 -SHRASN SCT020TCU

EXPIRED METARs :
  • 250700Z AUTO 19006KT 9000 FEW004 SCT015 BKN034 01/00 Q1001 TEMPO 4000 -SHRASN SCT020TCU
  • 250630Z AUTO 20004KT 5000 -SN BR FEW004 SCT008 BKN014 00/M00 Q1000 TEMPO SCT020TCU
  • 250600Z AUTO 20005KT 5000 -SN BR SCT004 BKN010 BKN019 01/M00 Q1000 TEMPO BKN005 SCT020TCU
  • 250530Z AUTO 21005KT 4300 -SN BR BKN015 BKN027 BKN041 01/M00 Q1000 TEMPO 1000 SHSN BKN003 SCT020TCU BECMG 27010KT
  • 250500Z AUTO 19006KT 9999 FEW045 OVC070 01/00 Q0999 TEMPO 1000 SHSN BKN003 SCT020TCU BECMG 27010KT

TAF TAF LFST
Valid from the 25 at 06:00 until the 26 at 06:00 UTC


250500Z 2506/2606 20006KT 9999 SCT020 BKN030
TEMPO 2506/2508 4000 -SHSN BKN005 SCT020TCU
TEMPO 2508/2520 4000 -SHRASN SCT020TCU
BECMG 2512/2515 30010KT



MET'MAP, your aeronautical weather chart ! - Copyright ORBIFLY December 2007 - Disclaimer

ORBIFLY MET'MAP TEAM :

Programming & Development : Alexandra Zaïnal
Concept & original design : Baudouin d'Aumeries
Assistance for programming : Marc-Olivier Méhu
Technical & hardware support : Manuel Goepfert

Contact : metmap@orbifly.com




SOURCES & CREDITS :

   NOAA